Terminal Aerodrome Forecast
Issued by NWS

Home | Current Version | Previous Version | Text Only | Print | Product List | Glossary On
Versions: 1 2 3 4 5 6 7 8 9 10 11 12 13 14 15 16 17 18 19 20 21 22 23 24 25 26 27 28 29 30 31 32 33 34
089
FTUS43 KDMX 112339
TAFFOD
TAF
KFOD 112339Z 1200/1224 19004KT 3SM -SN BKN018 OVC040
     FM120400 22005KT 5SM -SN BR BKN015
     FM120700 32007KT P6SM BKN035
     FM121500 35012G19KT P6SM SCT020=

USA.gov is the U.S. government's official web portal to all federal, state and local government web resources and services.